To NAV CANADA Home Page Login to a new session Search on AWWS site Feedback and Comments Disclaimer Vers la page française équivalente Tips FAQ What's new on the site To the Forecasts and Observations / NOTAM section To "File a Flight Plan" website Publications and other links Update of the User's profile FIC Telephone Numbers My Weather Data Folder Route Weather Data Regional Weather Data Local Weather Data To the Forecasts and Observations / NOTAM section
Request Generated 05/24/2015 at 22:58:18 UTC . Weather information available at that time is displayed.

METAR/TAF

STEPHENVILLE/NL    

METAR CYJT 242200Z 24015KT 15SM FEW022 SCT080 BKN200 08/05 A2991 RMK
SC2AC2CI1 SLP130=
METAR CYJT 242100Z 21018KT 15SM BKN022 BKN025 08/04 A2992 RMK SC6CU1
SLP131=
METAR CYJT 242000Z 22015G22KT 14SM -RA BKN020 OVC025 08/04 A2992 RMK
SC6SC2 SLP132=

TAF AMD CYJT 242015Z 2420/2518 23015G25KT P6SM BKN025 OVC030 TEMPO
2420/2422 P6SM -SHRA BKN020 OVC025
FM242200 24015G25KT P6SM BKN030 TEMPO 2422/2424 BKN020
BECMG 2422/2424 24012G22KT
FM250600 25008KT P6SM SCT100
BECMG 2507/2509 VRB03KT
BECMG 2514/2516 25012G22KT
FM251600 25012G22KT P6SM BKN100
RMK NXT FCST BY 250000Z=
Your time UTC time
Weather data provided by Environment Canada and NAV CANADA